< < Back
Terminal Aerodrome Forecast


Current Version              Previous Versions:   1  2  3  4  5  6  7  8  9  

Terminal Aerodrome Forecast

620
FTUS44 KBMX 221700
TAFANB
TAF
KANB 221729Z 2218/2318 28007KT P6SM SCT050
     FM230200 00000KT P6SM SKC
     FM231400 26004KT P6SM SKC=

Latest METAR

135
SAUS70 KWBC 230300 RRJ
MTRANB
METAR KANB 230253Z AUTO 00000KT 10SM CLR 26/24 A3004 RMK AO2 SLP160
T02610239 53005


USA.gov is the U.S. government's official web portal to all federal, state and local government web resources and services.